Latest Weather Observations for Adelaide

IDS60901

Issued at 10:31 pm CST Sunday 30 April 2017 (issued every 10 minutes, with the page automatically refreshed every 10 minutes)

About weather observations | Map of Adelaide area stations | Latest observations for Adelaide area | Other Formats
Station Details ID: 023090 Name: KENT TOWN Lat: -34.92 Lon: 138.62 Height: 48.0 m
Data from the previous 72 hours. | See also: Recent months at Adelaide
Date/Time
CST
Temp
°C
App
Temp
°C
Dew
Point
°C
Rel
Hum
%
Delta-T
°C
Wind Press
QNH
hPa
Press
MSL
hPa
Rain since
9am
mm
Dir  Spd
km/h
Gust
km/h
Spd
kts
Gust
kts
30/10:30pm 12.7 12.1 9.1 79 1.8 NNE 2 9 1 5 1018.6 1018.6 0.0
30/10:00pm 12.6 12.4 9.0 79 1.8 CALM 0 0 0 0 1018.6 1018.6 0.0
30/09:30pm 13.2 12.7 9.3 77 2.0 ENE 2 6 1 3 1018.7 1018.7 0.0
30/09:00pm 13.7 13.6 9.4 75 2.2 CALM 0 4 0 2 1018.9 1018.9 0.0
30/08:30pm 14.7 14.2 9.2 69 2.8 NE 2 9 1 5 1019.0 1019.0 0.0
30/08:00pm 14.9 14.7 9.2 68 2.9 CALM 0 0 0 0 1019.1 1019.1 0.0
30/07:30pm 14.8 14.9 10.2 74 2.4 CALM 0 0 0 0 1018.9 1018.9 0.0
30/07:00pm 15.2 15.1 9.6 69 2.9 CALM 0 0 0 0 1018.9 1018.9 0.0
30/06:30pm 15.8 15.5 8.7 62 3.6 CALM 0 0 0 0 1019.2 1019.2 0.0
30/06:00pm 16.3 16.4 10.2 67 3.2 CALM 0 0 0 0 1019.1 1019.1 0.0
30/05:30pm 16.9 15.3 8.0 55 4.5 WNW 6 9 3 5 1019.1 1019.1 0.0
30/05:00pm 17.4 15.7 8.4 55 4.6 W 7 11 4 6 1019.2 1019.2 0.0
30/04:30pm 17.7 15.9 8.1 53 4.9 WNW 7 13 4 7 1019.3 1019.3 0.0
30/04:00pm 17.8 15.7 8.2 53 4.9 WNW 9 17 5 9 1019.4 1019.4 0.0
30/03:30pm 19.3 16.8 6.5 43 6.4 NW 9 19 5 10 1019.4 1019.4 0.0
30/03:00pm 19.1 16.5 7.8 48 5.8 WNW 11 17 6 9 1019.6 1019.6 0.0
30/02:30pm 19.0 16.4 7.9 48 5.7 WNW 11 17 6 9 1019.7 1019.7 0.0
30/02:00pm 17.5 15.5 6.3 47 5.5 NNW 6 11 3 6 1019.9 1019.9 0.0
30/01:30pm 17.7 14.7 6.1 46 5.7 NNE 11 24 6 13 1020.3 1020.2 0.0
30/01:00pm 17.6 14.7 6.4 47 5.5 NNE 11 20 6 11 1020.7 1020.6 0.0
30/12:30pm 17.5 14.2 6.3 47 5.5 NNE 13 20 7 11 1021.3 1021.2 0.0
30/12:00pm 17.2 14.0 6.7 50 5.2 N 13 22 7 12 1021.8 1021.7 0.0
30/11:30am 17.1 13.9 6.8 50 5.1 N 13 22 7 12 1022.1 1022.0 0.0
30/11:00am 17.0 14.1 8.1 55 4.5 N 13 20 7 11 1022.6 1022.5 0.0
30/10:30am 17.6 14.6 7.7 52 5.0 N 13 22 7 12 1022.8 1022.7 0.0
30/10:00am 17.4 14.4 7.7 53 4.9 N 13 24 7 13 1022.9 1022.8 0.0
30/09:30am 16.7 13.8 8.0 56 4.4 N 13 20 7 11 1023.2 1023.1 0.0
30/09:00am 16.6 14.7 9.0 61 3.9 N 9 15 5 8 1023.5 1023.4 0.0
30/08:30am 16.0 14.5 9.2 64 3.5 NNE 7 9 4 5 1023.6 1023.5 0.0
30/08:00am 15.2 15.4 10.6 74 2.4 CALM 0 0 0 0 1023.6 1023.5 0.0
30/07:30am 14.8 15.1 10.8 77 2.1 CALM 0 0 0 0 1023.5 1023.4 0.0
30/07:00am 14.7 14.9 10.5 76 2.2 CALM 0 0 0 0 1023.4 1023.3 0.0
30/06:30am 14.7 14.9 10.7 77 2.1 CALM 0 0 0 0 1023.3 1023.2 0.0
30/06:00am 14.9 15.1 10.5 75 2.3 CALM 0 0 0 0 1023.2 1023.1 0.0
30/05:30am 15.1 15.2 10.1 72 2.6 CALM 0 0 0 0 1023.2 1023.1 0.0
30/05:00am 15.2 15.0 10.4 73 2.5 NE 2 7 1 4 1023.4 1023.3 0.0
30/04:30am 15.2 15.0 10.4 73 2.5 NE 2 6 1 3 1023.4 1023.3 0.0
30/04:00am 15.3 14.2 10.1 71 2.7 NNE 6 9 3 5 1023.3 1023.2 0.0
30/03:30am 15.2 15.0 10.4 73 2.5 N 2 6 1 3 1023.3 1023.2 0.0
30/03:00am 15.2 15.0 10.4 73 2.5 NNE 2 6 1 3 1023.4 1023.3 0.0
30/02:30am 15.2 15.5 10.9 75 2.3 CALM 0 0 0 0 1023.5 1023.4 0.0
30/02:00am 15.3 15.5 10.6 73 2.5 CALM 0 0 0 0 1023.9 1023.8 0.0
30/01:30am 15.3 15.6 10.8 74 2.4 CALM 0 6 0 3 1024.1 1024.0 0.0
30/01:00am 15.3 15.6 11.0 75 2.3 CALM 0 0 0 0 1024.3 1024.2 0.0
30/12:30am 15.3 15.8 11.6 78 2.0 CALM 0 0 0 0 1024.4 1024.3 0.0
30/12:00am 15.4 15.9 11.7 78 2.0 CALM 0 0 0 0 1024.6 1024.5 0.0
 
Date/Time
CST
Temp
°C
App
Temp
°C
Dew
Point
°C
Rel
Hum
%
Delta-T
°C
Wind Press
QNH
hPa
Press
MSL
hPa
Rain since
9am
mm
Dir  Spd
km/h
Gust
km/h
Spd
kts
Gust
kts
29/11:30pm 15.5 15.9 11.4 76 2.2 CALM 0 0 0 0 1024.8 1024.7 0.0
29/11:00pm 15.6 16.0 11.1 74 2.4 CALM 0 0 0 0 1025.0 1024.9 0.0
29/10:30pm 15.6 16.0 11.1 74 2.4 CALM 0 0 0 0 1025.2 1025.1 0.0
29/10:00pm 15.7 16.1 11.2 74 2.4 CALM 0 0 0 0 1025.3 1025.2 0.0
29/09:30pm 15.8 15.3 10.9 72 2.6 ENE 4 7 2 4 1025.3 1025.2 0.0
29/09:00pm 15.7 15.4 11.4 75 2.3 ENE 4 7 2 4 1025.4 1025.3 0.0
29/08:30pm 15.7 16.1 11.4 75 2.3 CALM 0 0 0 0 1025.5 1025.4 0.0
29/08:00pm 15.8 16.2 11.3 74 2.4 CALM 0 0 0 0 1025.5 1025.4 0.0
29/07:30pm 15.9 16.0 11.4 74 2.4 E 2 7 1 4 1025.7 1025.6 0.0
29/07:00pm 16.0 16.4 11.1 72 2.6 CALM 0 0 0 0 1025.6 1025.5 0.0
29/06:30pm 16.0 16.4 11.3 73 2.5 CALM 0 0 0 0 1025.5 1025.4 0.0
29/06:00pm 16.1 16.5 11.2 72 2.6 CALM 0 0 0 0 1025.4 1025.3 0.0
29/05:30pm 16.4 16.8 11.4 72 2.7 CALM 0 0 0 0 1025.3 1025.2 0.0
29/05:00pm 16.6 16.9 11.0 69 3.0 CALM 0 0 0 0 1025.1 1025.0 0.0
29/04:30pm 16.7 16.9 10.5 67 3.3 CALM 0 0 0 0 1025.2 1025.1 0.0
29/04:00pm 16.8 16.9 10.2 65 3.5 CALM 0 6 0 3 1025.2 1025.1 0.0
29/03:30pm 17.0 15.9 10.6 66 3.4 SSW 7 11 4 6 1025.3 1025.2 0.0
29/03:00pm 17.1 16.5 10.5 65 3.5 WSW 4 9 2 5 1025.5 1025.4 0.0
29/02:30pm 17.1 16.2 10.7 66 3.4 SW 6 9 3 5 1025.4 1025.3 0.0
29/02:00pm 17.5 16.4 10.8 65 3.6 WSW 7 11 4 6 1025.5 1025.4 0.0
29/01:30pm 17.5 16.4 9.9 61 4.0 WNW 6 13 3 7 1025.6 1025.5 0.0
29/01:00pm 17.5 16.4 10.1 62 3.9 SW 6 7 3 4 1026.0 1025.9 0.0
29/12:30pm 17.0 16.3 10.0 63 3.7 S 4 7 2 4 1026.4 1026.3 0.0
29/12:00pm 16.9 16.5 9.8 63 3.7 NNE 2 7 1 4 1026.9 1026.8 0.0
29/11:30am 17.1 16.8 10.1 63 3.7 NNW 2 7 1 4 1027.2 1027.1 0.0
29/11:00am 16.7 15.3 8.9 60 4.0 N 6 9 3 5 1027.6 1027.5 0.0
29/10:30am 16.2 16.5 10.9 71 2.8 CALM 0 6 0 3 1027.7 1027.6 0.0
29/10:00am 15.8 16.1 12.1 78 2.0 NE 2 9 1 5 1027.7 1027.6 0.0
29/09:30am 15.1 15.0 12.1 82 1.6 NNE 4 7 2 4 1027.8 1027.7 0.0
29/09:00am 14.7 14.7 12.5 87 1.2 ENE 4 7 2 4 1027.5 1027.4 2.8
29/08:30am 14.3 14.7 12.6 89 0.9 ENE 2 7 1 4 1027.4 1027.3 2.8
29/08:00am 14.1 14.3 13.0 93 0.6 NNE 4 7 2 4 1027.2 1027.1 2.8
29/07:30am 13.8 14.8 13.1 96 0.4 CALM 0 0 0 0 1026.9 1026.8 2.8
29/07:00am 13.7 14.6 13.0 96 0.4 CALM 0 0 0 0 1026.6 1026.5 2.8
29/06:30am 13.7 13.8 12.8 94 0.5 N 4 7 2 4 1026.4 1026.3 2.8
29/06:00am 13.8 14.8 13.1 96 0.4 CALM 0 0 0 0 1026.2 1026.1 2.8
29/05:30am 13.8 14.8 13.1 96 0.4 CALM 0 0 0 0 1026.1 1026.0 2.8
29/05:00am 13.7 14.6 13.0 96 0.4 CALM 0 0 0 0 1025.9 1025.8 2.8
29/04:30am 13.6 14.5 12.9 95 0.4 CALM 0 0 0 0 1025.9 1025.8 2.8
29/04:00am 13.6 14.5 12.9 95 0.4 CALM 0 0 0 0 1025.9 1025.8 2.8
29/03:30am 13.5 14.4 13.0 97 0.3 CALM 0 0 0 0 1025.9 1025.8 2.8
29/03:00am 13.5 13.3 13.0 97 0.3 ESE 6 7 3 4 1026.1 1026.0 2.8
29/02:30am 13.6 13.8 12.9 95 0.4 N 4 7 2 4 1026.4 1026.3 2.6
29/02:00am 13.7 14.3 13.0 96 0.4 N 2 7 1 4 1026.6 1026.5 2.2
29/01:30am 13.7 14.2 12.8 94 0.5 ENE 2 7 1 4 1026.5 1026.4 2.2
29/01:00am 13.7 14.6 13.0 96 0.4 CALM 0 0 0 0 1026.6 1026.5 2.2
29/12:30am 13.8 14.7 12.9 94 0.5 CALM 0 0 0 0 1026.9 1026.8 2.2
29/12:00am 13.9 14.5 13.0 94 0.5 ENE 2 7 1 4 1027.0 1026.9 2.2
 
Date/Time
CST
Temp
°C
App
Temp
°C
Dew
Point
°C
Rel
Hum
%
Delta-T
°C
Wind Press
QNH
hPa
Press
MSL
hPa
Rain since
9am
mm
Dir  Spd
km/h
Gust
km/h
Spd
kts
Gust
kts
28/11:30pm 14.0 14.8 12.7 92 0.7 CALM 0 0 0 0 1027.2 1027.1 2.2
28/11:00pm 14.2 15.0 12.7 91 0.8 CALM 0 4 0 2 1027.4 1027.3 2.0
28/10:30pm 14.4 14.9 12.8 90 0.9 NNW 2 7 1 4 1027.5 1027.4 2.0
28/10:00pm 14.6 15.4 12.4 87 1.2 CALM 0 0 0 0 1027.7 1027.6 1.8
28/09:30pm 15.0 14.4 11.8 81 1.7 NNW 6 7 3 4 1027.6 1027.5 1.8
28/09:00pm 15.0 15.6 11.8 81 1.7 CALM 0 0 0 0 1027.4 1027.3 1.8
28/08:30pm 15.0 15.6 11.8 81 1.7 CALM 0 0 0 0 1027.3 1027.2 1.8
28/08:00pm 15.0 15.4 11.4 79 1.9 CALM 0 6 0 3 1027.2 1027.1 1.8
28/07:30pm 15.2 14.9 11.3 77 2.1 SSE 4 7 2 4 1027.3 1027.2 1.8
28/07:00pm 15.4 14.6 11.1 75 2.3 SSE 6 9 3 5 1027.4 1027.3 1.8
28/06:30pm 15.7 15.8 11.4 75 2.3 SSW 2 6 1 3 1027.3 1027.2 1.8
28/06:00pm 15.9 15.6 11.4 74 2.4 SW 4 11 2 6 1027.1 1027.0 1.8
28/05:30pm 16.1 15.3 11.0 72 2.7 SW 6 9 3 5 1027.1 1027.0 1.8
28/05:00pm 16.5 15.4 10.7 68 3.1 SW 7 11 4 6 1027.1 1027.0 1.8
28/04:30pm 16.8 14.7 9.9 64 3.6 SW 11 19 6 10 1027.1 1027.0 1.8
28/04:00pm 17.1 15.2 10.5 65 3.5 SSW 11 17 6 9 1027.0 1026.9 1.8
28/03:30pm 17.3 15.7 10.1 62 3.8 SW 9 17 5 9 1027.1 1027.0 1.8
28/03:00pm 17.1 15.3 10.7 66 3.4 SW 11 19 6 10 1027.1 1027.0 1.8
28/02:30pm 17.0 15.5 11.9 72 2.8 SW 11 17 6 9 1027.3 1027.2 1.8
28/02:00pm 16.6 16.8 13.2 80 1.9 SSW 4 9 2 5 1027.5 1027.4 1.8
28/01:30pm 15.3 15.2 13.3 88 1.1 S 6 9 3 5 1027.7 1027.6 1.8
28/01:00pm 14.6 13.9 13.1 91 0.8 S 9 13 5 7 1028.0 1027.9 1.8
28/12:30pm 15.7 15.7 13.5 87 1.2 WSW 6 13 3 7 1028.3 1028.2 1.6
28/12:00pm 15.6 16.4 13.8 89 1.0 SSW 2 7 1 4 1028.7 1028.6 1.6
28/11:30am 15.5 16.0 13.9 90 0.9 SW 4 7 2 4 1029.0 1028.9 1.6
28/11:00am 14.9 16.0 13.5 91 0.8 CALM 0 0 0 0 1029.2 1029.1 1.6
28/10:30am 14.9 16.0 13.5 91 0.8 CALM 0 7 0 4 1029.2 1029.1 1.4
28/10:00am 14.4 14.7 13.5 94 0.5 N 4 7 2 4 1029.3 1029.2 1.4
28/09:30am 13.9 14.2 13.4 97 0.3 NNE 4 7 2 4 1029.3 1029.2 1.0
28/09:00am 13.8 13.6 13.1 96 0.4 N 6 9 3 5 1029.2 1029.1 3.8
28/08:30am 13.5 13.3 12.9 96 0.3 NE 6 9 3 5 1029.1 1029.0 3.4
28/08:00am 13.2 14.1 12.8 97 0.2 CALM 0 0 0 0 1028.8 1028.7 2.6
28/07:30am 13.1 13.5 12.5 96 0.3 ENE 2 7 1 4 1028.5 1028.4 2.2
28/07:00am 13.0 13.4 12.4 96 0.3 NE 2 6 1 3 1028.3 1028.2 2.0
28/06:30am 13.1 13.5 12.4 95 0.4 ENE 2 7 1 4 1028.1 1028.0 1.2
28/06:00am 13.1 13.9 12.4 95 0.4 CALM 0 0 0 0 1027.9 1027.8 0.6
28/05:30am 13.0 13.3 12.1 94 0.5 NE 2 6 1 3 1027.8 1027.7 0.6
28/05:00am 12.9 12.8 12.0 94 0.5 E 4 7 2 4 1027.6 1027.5 0.6
28/04:30am 12.9 13.2 12.2 95 0.4 ENE 2 9 1 5 1027.5 1027.4 0.6
28/04:00am 12.8 12.3 12.1 95 0.4 NNE 6 9 3 5 1027.4 1027.3 0.6
28/03:30am 13.0 12.6 12.3 95 0.4 NNE 6 9 3 5 1027.4 1027.3 0.6
28/03:00am 13.1 13.5 12.4 95 0.4 NNE 2 7 1 4 1027.4 1027.3 0.6
28/02:30am 13.1 13.8 12.2 94 0.5 CALM 0 0 0 0 1027.7 1027.6 0.4
28/02:00am 13.2 13.8 11.9 92 0.7 CALM 0 0 0 0 1027.7 1027.6 0.4
28/01:30am 13.1 13.5 11.4 89 0.9 CALM 0 0 0 0 1027.8 1027.7 0.4
28/01:00am 12.9 12.6 11.6 92 0.7 E 4 6 2 3 1027.8 1027.7 0.4
28/12:30am 12.9 13.4 11.6 92 0.7 CALM 0 0 0 0 1028.0 1027.9 0.4
28/12:00am 12.8 12.8 11.1 89 0.9 ESE 2 6 1 3 1028.1 1028.0 0.4
 
Date/Time
CST
Temp
°C
App
Temp
°C
Dew
Point
°C
Rel
Hum
%
Delta-T
°C
Wind Press
QNH
hPa
Press
MSL
hPa
Rain since
9am
mm
Dir  Spd
km/h
Gust
km/h
Spd
kts
Gust
kts
27/11:30pm 13.0 12.2 11.1 88 1.0 ENE 6 11 3 6 1028.3 1028.2 0.4
27/11:00pm 13.1 13.0 10.8 86 1.2 ESE 2 7 1 4 1028.3 1028.2 0.4

Latest Capital City Observations: Canberra | Sydney | Melbourne | Brisbane | Adelaide | Perth | Hobart | Darwin

Other Formats:

Comma delimited format used in spreadsheet applications
http://www.bom.gov.au/fwo/IDS60901/IDS60901.94675.axf

JavaScript Object Notation format (JSON) in row-major order
http://www.bom.gov.au/fwo/IDS60901/IDS60901.94675.json